createdAt,value
2018-07-25T00:00:32.842Z,18.10
2018-07-25T00:03:01.266Z,18.20
2018-07-25T00:05:29.721Z,18.10
2018-07-25T00:07:58.157Z,18.20
2018-07-25T00:10:47.646Z,18.20
2018-07-25T00:13:16.467Z,18.10
2018-07-25T00:18:13.053Z,18.10
2018-07-25T00:20:41.506Z,18.10
2018-07-25T00:23:09.949Z,18.00
2018-07-25T00:25:38.486Z,18.00
2018-07-25T00:28:06.961Z,18.00
2018-07-25T00:30:35.388Z,17.90
2018-07-25T00:33:03.850Z,17.90
2018-07-25T00:35:32.278Z,17.90
2018-07-25T00:40:28.813Z,17.70
2018-07-25T00:42:57.285Z,17.70
2018-07-25T00:45:25.702Z,17.70
2018-07-25T00:47:54.149Z,17.70
2018-07-25T00:50:22.553Z,17.70
2018-07-25T00:55:19.124Z,17.60
2018-07-25T00:57:47.561Z,17.60
2018-07-25T01:00:17.936Z,17.60
2018-07-25T01:02:46.902Z,17.60
2018-07-25T01:05:15.461Z,17.50
2018-07-25T01:07:43.906Z,17.50
2018-07-25T01:10:12.343Z,17.40
2018-07-25T01:12:40.789Z,17.40
2018-07-25T01:15:10.213Z,17.30
2018-07-25T01:17:39.026Z,17.20
2018-07-25T01:20:07.891Z,17.20
2018-07-25T01:22:36.320Z,17.20
2018-07-25T01:25:04.883Z,17.30
2018-07-25T01:27:33.359Z,17.30
2018-07-25T01:30:01.867Z,17.30
2018-07-25T01:32:30.328Z,17.30
2018-07-25T01:34:58.742Z,17.30
2018-07-25T01:37:27.197Z,17.30
2018-07-25T01:39:55.605Z,17.30
2018-07-25T01:42:24.050Z,17.20
2018-07-25T01:44:52.461Z,17.20
2018-07-25T01:47:20.888Z,17.10
2018-07-25T01:49:49.311Z,17.10
2018-07-25T01:52:27.525Z,17.10
2018-07-25T01:54:55.945Z,17.00
2018-07-25T01:59:52.494Z,16.90
2018-07-25T02:02:20.937Z,16.80
2018-07-25T02:04:49.361Z,16.80
2018-07-25T02:07:17.802Z,16.80
2018-07-25T02:09:46.209Z,16.90
2018-07-25T02:12:14.643Z,16.90
2018-07-25T02:14:43.058Z,16.90
2018-07-25T02:17:11.498Z,16.90
2018-07-25T02:19:39.913Z,16.90
2018-07-25T02:22:08.359Z,16.90
2018-07-25T02:24:36.786Z,16.80
2018-07-25T02:29:33.513Z,16.70
2018-07-25T02:32:02.241Z,16.70
2018-07-25T02:34:30.667Z,16.70
2018-07-25T02:36:59.095Z,16.60
2018-07-25T02:39:27.508Z,16.50
2018-07-25T02:41:55.948Z,16.40
2018-07-25T02:44:24.379Z,16.40
2018-07-25T02:46:52.870Z,16.40
2018-07-25T02:49:21.302Z,16.40
2018-07-25T02:51:49.766Z,16.50
2018-07-25T02:56:46.349Z,16.60
2018-07-25T02:59:14.749Z,16.50
2018-07-25T03:01:43.189Z,16.40
2018-07-25T03:04:11.617Z,16.40
2018-07-25T03:06:40.071Z,16.40
2018-07-25T03:09:09.480Z,16.30
2018-07-25T03:11:38.213Z,16.20
2018-07-25T03:14:06.709Z,16.20
2018-07-25T03:16:35.159Z,16.30
2018-07-25T03:19:03.622Z,16.30
2018-07-25T03:21:32.050Z,16.30
2018-07-25T03:24:00.498Z,16.30
2018-07-25T03:26:28.902Z,16.30
2018-07-25T03:28:57.358Z,16.30
2018-07-25T03:31:25.877Z,16.30
2018-07-25T03:33:54.241Z,16.10
2018-07-25T03:38:50.818Z,16.20
2018-07-25T03:41:19.250Z,16.10
2018-07-25T03:43:47.690Z,16.00
2018-07-25T03:46:16.105Z,16.10
2018-07-25T03:48:44.542Z,16.10
2018-07-25T03:51:12.951Z,16.10
2018-07-25T03:53:41.389Z,16.10
2018-07-25T03:56:09.830Z,16.10
2018-07-25T03:58:38.282Z,16.20
2018-07-25T04:01:07.248Z,16.20
2018-07-25T04:03:35.710Z,16.20
2018-07-25T04:06:04.139Z,16.20
2018-07-25T04:08:32.594Z,16.10
2018-07-25T04:11:01.010Z,16.00
2018-07-25T04:13:29.441Z,16.00
2018-07-25T04:15:57.857Z,16.00
2018-07-25T04:18:26.294Z,16.10
2018-07-25T04:20:54.733Z,16.10
2018-07-25T04:23:23.167Z,16.20
2018-07-25T04:25:51.566Z,16.20
2018-07-25T04:28:20.022Z,16.30
2018-07-25T04:30:48.450Z,16.40
2018-07-25T04:33:16.893Z,16.40
2018-07-25T04:35:45.318Z,16.50
2018-07-25T04:40:41.911Z,16.60
2018-07-25T04:43:10.342Z,16.50
2018-07-25T04:45:38.738Z,16.50
2018-07-25T04:48:07.198Z,16.50
2018-07-25T04:50:35.653Z,16.60
2018-07-25T04:53:04.125Z,16.70
2018-07-25T04:55:32.541Z,16.80
2018-07-25T04:58:00.978Z,16.80
2018-07-25T05:00:29.398Z,16.90
2018-07-25T05:02:57.826Z,17.10
2018-07-25T05:05:26.250Z,17.10
2018-07-25T05:07:54.675Z,17.20
2018-07-25T05:10:23.101Z,17.30
2018-07-25T05:12:51.558Z,17.30
2018-07-25T05:15:20.047Z,17.40
2018-07-25T05:17:48.489Z,17.50
2018-07-25T05:20:16.913Z,17.50
2018-07-25T05:22:45.378Z,17.50
2018-07-25T05:25:13.806Z,17.60
2018-07-25T05:30:10.433Z,17.80
2018-07-25T05:32:38.835Z,17.90
2018-07-25T05:37:35.417Z,18.10
2018-07-25T05:40:04.545Z,18.20
2018-07-25T05:42:32.957Z,18.30
2018-07-25T05:45:01.443Z,18.40
2018-07-25T05:49:58.117Z,18.60
2018-07-25T05:52:26.530Z,18.70
2018-07-25T05:54:54.969Z,18.80
2018-07-25T05:57:23.397Z,18.90
2018-07-25T05:59:51.845Z,19.00
2018-07-25T06:02:20.260Z,19.10
2018-07-25T06:04:48.692Z,19.20
2018-07-25T06:07:17.113Z,19.20
2018-07-25T06:09:45.557Z,19.40
2018-07-25T06:12:13.991Z,19.50
2018-07-25T06:14:42.429Z,19.60
2018-07-25T06:17:10.961Z,19.80
2018-07-25T06:19:39.391Z,19.90
2018-07-25T06:22:07.816Z,20.00
2018-07-25T06:24:36.265Z,20.20
2018-07-25T06:27:04.686Z,20.30
2018-07-25T06:29:33.149Z,20.50
2018-07-25T06:32:01.585Z,20.60
2018-07-25T06:34:30.019Z,20.80
2018-07-25T06:36:58.446Z,20.90
2018-07-25T06:39:26.898Z,21.10
2018-07-25T06:44:23.469Z,21.40
2018-07-25T06:46:51.892Z,21.50
2018-07-25T06:49:20.340Z,21.70
2018-07-25T06:51:48.806Z,21.70
2018-07-25T06:54:17.243Z,21.80
2018-07-25T06:56:45.671Z,21.90
2018-07-25T06:59:14.105Z,22.00
2018-07-25T07:01:42.541Z,22.20
2018-07-25T07:04:11.007Z,22.40
2018-07-25T07:06:39.484Z,22.50
2018-07-25T07:09:09.490Z,22.60
2018-07-25T07:11:37.946Z,22.80
2018-07-25T07:14:06.410Z,23.00
2018-07-25T07:16:34.829Z,23.10
2018-07-25T07:19:03.302Z,23.20
2018-07-25T07:23:59.904Z,23.40
2018-07-25T07:26:28.318Z,23.60
2018-07-25T07:28:56.782Z,23.70
2018-07-25T07:31:25.273Z,23.90
2018-07-25T07:33:53.712Z,24.00
2018-07-25T07:36:23.836Z,24.20
2018-07-25T07:38:52.365Z,24.30
2018-07-25T07:41:20.810Z,24.40
2018-07-25T07:43:49.269Z,24.60
2018-07-25T07:46:17.702Z,24.80
2018-07-25T07:48:46.166Z,24.90
2018-07-25T07:51:14.598Z,25.10
2018-07-25T07:53:43.033Z,25.30
2018-07-25T07:58:39.601Z,25.60
2018-07-25T08:01:08.094Z,25.80
2018-07-25T08:03:36.521Z,25.90
2018-07-25T08:06:04.994Z,26.10
2018-07-25T08:08:33.414Z,26.30
2018-07-25T08:13:30.004Z,26.60
2018-07-25T08:15:58.478Z,26.70
2018-07-25T08:18:26.907Z,26.70
2018-07-25T08:20:55.349Z,26.90
2018-07-25T08:23:23.773Z,27.10
2018-07-25T08:28:20.367Z,27.30
2018-07-25T08:30:48.801Z,27.40
2018-07-25T08:33:17.237Z,27.60
2018-07-25T08:35:45.685Z,27.80
2018-07-25T08:38:14.178Z,28.00
2018-07-25T08:40:42.637Z,28.30
2018-07-25T08:45:39.229Z,28.70
2018-07-25T08:48:07.660Z,28.90
2018-07-25T08:50:36.121Z,29.10
2018-07-25T08:53:04.590Z,29.00
2018-07-25T08:55:33.052Z,29.20
2018-07-25T08:58:01.470Z,29.30
2018-07-25T09:00:29.998Z,29.20
2018-07-25T09:02:58.393Z,29.10
2018-07-25T09:05:26.819Z,29.40
2018-07-25T09:07:55.257Z,29.30
2018-07-25T09:10:23.685Z,29.50
2018-07-25T09:12:52.190Z,29.60
2018-07-25T09:15:20.600Z,29.90
2018-07-25T09:17:49.049Z,30.00
2018-07-25T09:20:17.501Z,30.10
2018-07-25T09:25:14.090Z,30.90
2018-07-25T09:27:42.526Z,31.20
2018-07-25T09:30:10.969Z,31.30
2018-07-25T09:32:39.413Z,31.20
2018-07-25T09:35:07.841Z,30.80
2018-07-25T09:37:36.289Z,30.40
2018-07-25T09:40:04.742Z,30.90
2018-07-25T09:42:33.198Z,31.40
2018-07-25T09:45:01.642Z,31.50
2018-07-25T09:47:30.113Z,31.90
2018-07-25T09:49:58.542Z,31.70
2018-07-25T09:52:27.020Z,32.00
2018-07-25T09:54:55.435Z,32.00
2018-07-25T09:57:23.909Z,31.70
2018-07-25T09:59:52.338Z,31.40
2018-07-25T10:02:20.836Z,32.20
2018-07-25T10:04:49.266Z,32.80
2018-07-25T10:07:17.875Z,33.30
2018-07-25T10:09:46.198Z,33.30
2018-07-25T10:12:14.659Z,33.80
2018-07-25T10:14:43.100Z,34.50
2018-07-25T10:17:11.542Z,35.00
2018-07-25T10:19:39.982Z,35.30
2018-07-25T10:24:36.602Z,35.80
2018-07-25T10:27:05.040Z,36.40
2018-07-25T10:32:01.619Z,36.00
2018-07-25T10:34:30.087Z,36.10
2018-07-25T10:36:58.532Z,36.00
2018-07-25T10:39:26.957Z,36.50
2018-07-25T10:41:55.388Z,36.90
2018-07-25T10:46:51.965Z,35.80
2018-07-25T10:49:20.430Z,35.30
2018-07-25T10:51:48.886Z,36.60
2018-07-25T10:54:17.348Z,37.40
2018-07-25T10:56:45.781Z,38.40
2018-07-25T10:59:14.233Z,38.30
2018-07-25T11:01:42.653Z,38.30
2018-07-25T11:04:11.105Z,37.40
2018-07-25T11:09:08.516Z,37.40
2018-07-25T11:14:05.203Z,37.40
2018-07-25T11:16:33.693Z,37.90
2018-07-25T11:19:02.099Z,37.20
2018-07-25T11:23:58.694Z,33.50
2018-07-25T11:26:27.139Z,33.50
2018-07-25T11:28:55.621Z,34.90
2018-07-25T11:31:24.057Z,36.30
2018-07-25T11:33:52.484Z,35.90
2018-07-25T11:36:20.898Z,34.60
2018-07-25T11:38:49.350Z,33.50
2018-07-25T11:41:17.769Z,34.20
2018-07-25T11:43:46.226Z,35.70
2018-07-25T11:46:14.685Z,35.60
2018-07-25T11:48:43.153Z,36.20
2018-07-25T11:51:11.585Z,36.90
2018-07-25T11:53:40.035Z,37.40
2018-07-25T11:56:08.451Z,36.80
2018-07-25T11:58:36.909Z,36.60
2018-07-25T12:01:05.352Z,36.70
2018-07-25T12:06:01.894Z,36.90
2018-07-25T12:08:30.338Z,37.20
2018-07-25T12:10:58.818Z,36.50
2018-07-25T12:13:27.313Z,36.50
2018-07-25T12:18:23.909Z,36.00
2018-07-25T12:20:52.343Z,35.30
2018-07-25T12:23:20.828Z,35.10
2018-07-25T12:25:49.286Z,34.50
2018-07-25T12:28:17.800Z,34.00
2018-07-25T12:30:46.250Z,33.70
2018-07-25T12:33:14.735Z,33.70
2018-07-25T12:35:43.161Z,33.90
2018-07-25T12:38:11.605Z,34.00
2018-07-25T12:40:40.058Z,34.00
2018-07-25T12:43:08.519Z,33.90
2018-07-25T12:45:36.970Z,33.70
2018-07-25T12:48:05.449Z,33.30
2018-07-25T12:50:33.963Z,33.40
2018-07-25T12:53:02.401Z,33.00
2018-07-25T12:57:58.965Z,32.40
2018-07-25T13:00:27.409Z,32.60
2018-07-25T13:02:55.885Z,33.30
2018-07-25T13:07:52.414Z,34.60
2018-07-25T13:10:20.877Z,33.80
2018-07-25T13:15:17.454Z,33.80
2018-07-25T13:17:45.881Z,34.20
2018-07-25T13:20:14.434Z,34.70
2018-07-25T13:22:42.928Z,34.80
2018-07-25T13:25:11.401Z,34.60
2018-07-25T13:27:39.854Z,34.70
2018-07-25T13:30:08.484Z,34.80
2018-07-25T13:32:36.945Z,35.40
2018-07-25T13:35:05.482Z,37.20
2018-07-25T13:37:33.966Z,37.90
2018-07-25T13:40:02.470Z,38.80
2018-07-25T13:42:30.963Z,40.20
2018-07-25T13:44:59.429Z,40.10
2018-07-25T13:47:27.903Z,37.80
2018-07-25T13:49:56.365Z,36.90
2018-07-25T13:52:24.822Z,36.80
2018-07-25T13:54:53.297Z,38.70
2018-07-25T13:57:21.741Z,39.90
2018-07-25T14:02:18.338Z,41.20
2018-07-25T14:04:46.793Z,41.90
2018-07-25T14:07:15.233Z,40.60
2018-07-25T14:09:43.705Z,38.70
2018-07-25T14:12:12.183Z,37.60
2018-07-25T14:14:40.630Z,36.60
2018-07-25T14:17:09.085Z,36.00
2018-07-25T14:19:37.583Z,35.50
2018-07-25T14:22:06.229Z,35.10
2018-07-25T14:24:34.687Z,34.70
2018-07-25T14:27:03.222Z,34.40
2018-07-25T14:29:31.772Z,34.10
2018-07-25T14:32:00.140Z,33.60
2018-07-25T14:34:28.614Z,33.30
2018-07-25T14:36:57.071Z,33.10
2018-07-25T14:39:25.574Z,32.90
2018-07-25T14:41:54.033Z,32.50
2018-07-25T14:44:22.509Z,32.10
2018-07-25T14:46:51.029Z,31.80
2018-07-25T14:51:47.538Z,31.50
2018-07-25T14:54:16.065Z,31.40
2018-07-25T14:56:44.494Z,31.30
2018-07-25T14:59:12.993Z,31.00
2018-07-25T15:01:41.458Z,30.80
2018-07-25T15:04:09.905Z,30.90
2018-07-25T15:06:38.361Z,30.90
2018-07-25T15:09:08.505Z,31.40
2018-07-25T15:11:36.970Z,33.20
2018-07-25T15:14:05.564Z,34.30
2018-07-25T15:16:34.148Z,36.10
2018-07-25T15:21:30.750Z,38.60
2018-07-25T15:24:03.599Z,38.00
2018-07-25T15:26:32.066Z,36.00
2018-07-25T15:29:01.316Z,34.40
2018-07-25T15:31:29.741Z,35.50
2018-07-25T15:33:58.221Z,37.00
2018-07-25T15:39:00.528Z,33.90
2018-07-25T15:41:28.989Z,34.30
2018-07-25T15:43:57.445Z,35.60
2018-07-25T15:46:25.917Z,35.80
2018-07-25T15:48:54.448Z,34.30
2018-07-25T15:51:22.906Z,33.40
2018-07-25T15:53:51.338Z,32.60
2018-07-25T15:56:19.802Z,32.20
2018-07-25T15:58:48.257Z,32.10
2018-07-25T16:01:16.730Z,32.00
2018-07-25T16:06:13.621Z,31.80
2018-07-25T16:08:42.060Z,31.70
2018-07-25T16:11:10.578Z,31.60
2018-07-25T16:13:39.013Z,31.60
2018-07-25T16:18:35.990Z,31.60
2018-07-25T16:21:04.555Z,31.40
2018-07-25T16:23:33.010Z,31.40
2018-07-25T16:26:01.478Z,31.40
2018-07-25T16:28:29.925Z,31.30
2018-07-25T16:30:58.925Z,31.30
2018-07-25T16:33:27.382Z,31.30
2018-07-25T16:38:24.057Z,31.00
2018-07-25T16:40:52.552Z,30.90
2018-07-25T16:43:20.998Z,31.00
2018-07-25T16:45:49.537Z,31.10
2018-07-25T16:48:17.993Z,31.00
2018-07-25T16:50:46.458Z,30.80
2018-07-25T16:53:14.930Z,30.60
2018-07-25T16:55:43.416Z,30.60
2018-07-25T16:58:11.846Z,30.40
2018-07-25T17:00:40.298Z,30.30
2018-07-25T17:03:08.760Z,30.10
2018-07-25T17:05:37.222Z,29.90
2018-07-25T17:08:05.707Z,29.80
2018-07-25T17:10:34.170Z,29.70
2018-07-25T17:13:02.611Z,29.70
2018-07-25T17:15:31.091Z,29.60
2018-07-25T17:17:59.537Z,29.50
2018-07-25T17:20:28.075Z,29.30
2018-07-25T17:22:56.474Z,29.10
2018-07-25T17:25:25.397Z,28.90
2018-07-25T17:27:53.917Z,28.80
2018-07-25T17:30:22.569Z,28.60
2018-07-25T17:32:51.000Z,28.50
2018-07-25T17:35:19.517Z,28.50
2018-07-25T17:37:47.965Z,28.40
2018-07-25T17:40:16.449Z,28.30
2018-07-25T17:42:44.902Z,28.20
2018-07-25T17:45:13.339Z,28.10
2018-07-25T17:47:42.439Z,28.00
2018-07-25T17:50:13.198Z,27.90
2018-07-25T17:52:41.910Z,27.80
2018-07-25T17:55:10.354Z,27.70
2018-07-25T17:57:38.821Z,27.60
2018-07-25T18:00:09.369Z,27.50
2018-07-25T18:02:37.890Z,27.50
2018-07-25T18:10:04.638Z,27.30
2018-07-25T18:12:33.202Z,27.20
2018-07-25T18:15:02.354Z,27.10
2018-07-25T18:17:31.341Z,27.00
2018-07-25T18:20:00.333Z,27.00
2018-07-25T18:22:28.862Z,26.90
2018-07-25T18:24:57.331Z,26.90
2018-07-25T18:27:25.799Z,26.80
2018-07-25T18:29:54.266Z,26.70
2018-07-25T18:32:22.769Z,26.60
2018-07-25T18:34:51.241Z,26.50
2018-07-25T18:37:19.714Z,26.40
2018-07-25T18:39:48.171Z,26.40
2018-07-25T18:42:16.656Z,26.30
2018-07-25T18:47:13.361Z,26.20
2018-07-25T18:49:41.866Z,26.20
2018-07-25T18:52:10.365Z,26.10
2018-07-25T18:54:38.801Z,26.10
2018-07-25T18:57:07.457Z,26.00
2018-07-25T18:59:38.427Z,25.90
2018-07-25T19:02:07.133Z,25.80
2018-07-25T19:04:35.558Z,25.70
2018-07-25T19:07:04.066Z,25.60
2018-07-25T19:09:32.505Z,25.50
2018-07-25T19:12:00.932Z,25.30
2018-07-25T19:14:34.619Z,25.20
2018-07-25T19:17:03.202Z,25.10
2018-07-25T19:19:31.678Z,25.10
2018-07-25T19:22:00.190Z,24.80
2018-07-25T19:24:28.660Z,24.70
2018-07-25T19:26:57.258Z,24.50
2018-07-25T19:29:25.750Z,24.40
2018-07-25T19:31:54.264Z,24.40
2018-07-25T19:36:51.036Z,24.30
2018-07-25T19:39:19.499Z,24.30
2018-07-25T19:46:44.299Z,24.20
2018-07-25T19:49:12.762Z,24.20
2018-07-25T19:51:41.215Z,24.10
2018-07-25T19:54:09.629Z,24.00
2018-07-25T19:56:38.052Z,24.00
2018-07-25T20:01:34.621Z,23.90
2018-07-25T20:04:03.043Z,23.90
2018-07-25T20:06:31.487Z,23.80
2018-07-25T20:08:59.918Z,23.70
2018-07-25T20:11:28.375Z,23.60
2018-07-25T20:14:02.208Z,23.40
2018-07-25T20:16:30.606Z,23.40
2018-07-25T20:18:59.014Z,23.30
2018-07-25T20:21:27.444Z,23.30
2018-07-25T20:23:55.957Z,23.30
2018-07-25T20:28:53.588Z,23.20
2018-07-25T20:31:22.182Z,23.10
2018-07-25T20:33:50.613Z,23.00
2018-07-25T20:36:19.063Z,23.10
2018-07-25T20:38:47.493Z,23.10
2018-07-25T20:41:16.757Z,23.20
2018-07-25T20:43:45.218Z,23.00
2018-07-25T20:46:13.661Z,22.90
2018-07-25T20:48:42.113Z,22.90
2018-07-25T20:51:10.542Z,22.90
2018-07-25T20:53:39.037Z,22.80
2018-07-25T20:58:35.616Z,22.60
2018-07-25T21:01:04.066Z,22.50
2018-07-25T21:03:32.511Z,22.40
2018-07-25T21:06:00.942Z,22.40
2018-07-25T21:08:29.378Z,22.40
2018-07-25T21:10:57.814Z,22.30
2018-07-25T21:13:26.281Z,22.30
2018-07-25T21:15:54.714Z,22.30
2018-07-25T21:18:23.159Z,22.20
2018-07-25T21:20:51.565Z,22.30
2018-07-25T21:23:20.011Z,22.30
2018-07-25T21:25:48.427Z,22.30
2018-07-25T21:28:16.885Z,22.40
2018-07-25T21:30:45.327Z,22.50
2018-07-25T21:33:13.773Z,22.50
2018-07-25T21:35:42.185Z,22.50
2018-07-25T21:38:10.641Z,22.50
2018-07-25T21:40:39.050Z,22.40
2018-07-25T21:43:07.482Z,22.40
2018-07-25T21:45:35.885Z,22.30
2018-07-25T21:48:04.309Z,22.30
2018-07-25T21:50:32.733Z,22.20
2018-07-25T21:53:01.171Z,22.20
2018-07-25T21:55:29.589Z,22.10
2018-07-25T21:57:58.059Z,22.00
2018-07-25T22:00:26.489Z,22.00
2018-07-25T22:02:54.922Z,22.00
2018-07-25T22:05:23.341Z,22.00
2018-07-25T22:07:51.757Z,22.00
2018-07-25T22:10:20.159Z,21.90
2018-07-25T22:12:48.598Z,21.90
2018-07-25T22:15:17.014Z,21.90
2018-07-25T22:17:45.436Z,21.80
2018-07-25T22:20:13.881Z,21.70
2018-07-25T22:22:42.316Z,21.50
2018-07-25T22:25:10.842Z,21.40
2018-07-25T22:27:39.970Z,21.30
2018-07-25T22:30:08.836Z,21.20
2018-07-25T22:32:37.266Z,21.20
2018-07-25T22:35:05.763Z,21.10
2018-07-25T22:37:34.205Z,21.10
2018-07-25T22:40:02.615Z,21.10
2018-07-25T22:42:31.018Z,21.00
2018-07-25T22:44:59.433Z,21.00
2018-07-25T22:47:27.854Z,21.00
2018-07-25T22:49:56.286Z,21.00
2018-07-25T22:54:52.821Z,20.90
2018-07-25T22:57:21.233Z,20.90
2018-07-25T22:59:49.658Z,20.80
2018-07-25T23:02:18.625Z,20.80
2018-07-25T23:04:47.052Z,20.80
2018-07-25T23:09:43.706Z,20.80
2018-07-25T23:12:12.118Z,20.80
2018-07-25T23:14:40.575Z,20.70
2018-07-25T23:17:08.979Z,20.60
2018-07-25T23:19:37.419Z,20.50
2018-07-25T23:22:05.841Z,20.50
2018-07-25T23:24:34.286Z,20.50
2018-07-25T23:27:02.690Z,20.50
2018-07-25T23:29:31.184Z,20.50
2018-07-25T23:31:59.577Z,20.40
2018-07-25T23:34:28.001Z,20.20
2018-07-25T23:36:56.417Z,20.20
2018-07-25T23:39:24.906Z,20.20
2018-07-25T23:41:53.305Z,20.10
2018-07-25T23:44:21.729Z,20.10
2018-07-25T23:49:18.248Z,20.20
2018-07-25T23:51:46.650Z,20.20
2018-07-25T23:56:43.177Z,20.10
2018-07-25T23:59:11.642Z,20.10
